Time;durP1;ratioP1;P1;durP2;ratioP2;P2;SDS_P1;SDS_P2;PMS_P1;PMS_P2;Temp;Humidity;BMP_temperature;BMP_pressure;BME280_temperature;BME280_humidity;BME280_pressure;Samples;Min_cycle;Max_cycle;Signal;HPM_P1;HPM_P2
2023/02/19 00:01:07;;;;;;;14.55;2.88;;;9.90;99.90;;;;;;4993083;28;20026;-75
2023/02/19 00:03:33;;;;;;;11.15;1.90;;;10.40;99.90;;;;;;4993092;28;20034;-75
2023/02/19 00:06:02;;;;;;;16.42;3.42;;;9.90;99.90;;;;;;4994031;28;20397;-74
2023/02/19 00:08:30;;;;;;;11.25;2.05;;;9.80;99.90;;;;;;4994342;28;20032;-75
2023/02/19 00:11:02;;;;;;;15.35;2.95;;;9.80;99.90;;;;;;4994105;28;20026;-75
2023/02/19 00:13:28;;;;;;;12.52;2.08;;;10.00;99.90;;;;;;4993013;28;20026;-75
2023/02/19 00:15:55;;;;;;;13.15;1.33;;;9.90;99.90;;;;;;4994173;28;20046;-74
2023/02/19 00:18:21;;;;;;;19.17;2.75;;;9.90;99.90;;;;;;4994222;28;20030;-75
2023/02/19 00:20:47;;;;;;;14.57;2.55;;;9.80;99.90;;;;;;4992852;28;20473;-75
2023/02/19 00:23:12;;;;;;;16.42;3.10;;;9.90;99.90;;;;;;4992962;28;20029;-75
2023/02/19 00:25:38;;;;;;;20.25;2.42;;;9.90;99.90;;;;;;4993116;28;20077;-75
2023/02/19 00:28:04;;;;;;;13.98;2.38;;;10.60;99.90;;;;;;4993280;28;20022;-75
2023/02/19 00:30:29;;;;;;;10.15;2.00;;;9.80;99.90;;;;;;4993842;28;20035;-75
2023/02/19 00:32:55;;;;;;;12.75;1.73;;;9.80;99.90;;;;;;4994270;28;20019;-75
2023/02/19 00:35:21;;;;;;;16.13;2.67;;;9.80;99.90;;;;;;4992960;28;20022;-75
2023/02/19 00:37:47;;;;;;;13.27;2.28;;;9.80;99.90;;;;;;4992931;28;20022;-74
2023/02/19 00:40:13;;;;;;;11.88;2.75;;;9.70;99.90;;;;;;4992791;28;20018;-74
2023/02/19 00:42:38;;;;;;;15.75;2.85;;;9.80;99.90;;;;;;4993912;28;20456;-75
2023/02/19 00:45:04;;;;;;;13.63;2.15;;;9.80;99.90;;;;;;4993734;28;20088;-74
2023/02/19 00:47:30;;;;;;;12.63;1.60;;;9.80;99.90;;;;;;4992649;28;20026;-75
2023/02/19 00:49:55;;;;;;;11.02;2.42;;;9.90;99.90;;;;;;4992819;28;20026;-74
2023/02/19 00:52:21;;;;;;;6.85;1.75;;;9.90;99.90;;;;;;4993940;28;20026;-75
2023/02/19 00:54:46;;;;;;;11.60;2.20;;;9.90;99.90;;;;;;4993783;28;20489;-75
2023/02/19 00:57:12;;;;;;;18.25;2.65;;;9.90;99.90;;;;;;4993897;28;20422;-75
2023/02/19 00:59:37;;;;;;;15.40;3.33;;;9.90;99.90;;;;;;4992379;28;20026;-75
2023/02/19 01:02:03;;;;;;;12.50;2.15;;;9.80;99.90;;;;;;4995614;28;20405;-75
2023/02/19 01:04:29;;;;;;;27.55;3.53;;;10.30;99.90;;;;;;4996532;28;20029;-75
2023/02/19 01:06:54;;;;;;;15.98;1.85;;;9.80;99.90;;;;;;4997708;28;20495;-75
2023/02/19 01:09:20;;;;;;;16.10;1.45;;;9.90;99.90;;;;;;4997608;28;20032;-75
2023/02/19 01:11:46;;;;;;;12.13;1.67;;;9.80;99.90;;;;;;4997377;28;20072;-75
2023/02/19 01:14:11;;;;;;;14.00;2.10;;;9.90;99.90;;;;;;4996411;28;20085;-75
2023/02/19 01:16:37;;;;;;;9.90;2.15;;;10.00;99.90;;;;;;4996304;28;20378;-74
2023/02/19 01:19:03;;;;;;;11.27;2.00;;;10.00;99.90;;;;;;4998018;28;20053;-75
2023/02/19 01:21:29;;;;;;;10.63;1.75;;;10.00;99.90;;;;;;4996042;28;20129;-75
2023/02/19 01:23:56;;;;;;;11.95;2.00;;;10.00;99.90;;;;;;4997012;28;20027;-75
2023/02/19 01:26:28;;;;;;;14.65;1.88;;;10.00;99.90;;;;;;4996049;28;20033;-75
2023/02/19 01:28:54;;;;;;;11.18;2.13;;;10.00;99.90;;;;;;4997467;28;20389;-75
2023/02/19 01:31:22;;;;;;;14.40;2.30;;;9.90;99.90;;;;;;4996416;28;20033;-75
2023/02/19 01:33:53;;;;;;;9.80;1.23;;;9.90;99.90;;;;;;4995984;28;20055;-75
2023/02/19 01:36:19;;;;;;;17.13;2.22;;;9.90;99.90;;;;;;4995964;28;20481;-75
2023/02/19 01:38:45;;;;;;;10.35;1.85;;;10.10;99.90;;;;;;4995787;28;20149;-75
2023/02/19 01:41:14;;;;;;;12.23;1.48;;;10.00;99.90;;;;;;4996957;28;20037;-75
2023/02/19 01:44:17;;;;;;;7.88;1.55;;;9.80;99.90;;;;;;4995895;28;20029;-75
2023/02/19 01:46:47;;;;;;;6.85;1.52;;;9.80;99.90;;;;;;4937460;29;20031;-75
2023/02/19 01:49:36;;;;;;;10.30;2.58;;;9.90;99.90;;;;;;4983144;28;20042;-75
2023/02/19 01:52:11;;;;;;;13.52;1.88;;;9.80;99.90;;;;;;4998998;28;20023;-75
2023/02/19 01:54:41;;;;;;;9.02;1.05;;;9.80;99.90;;;;;;4995604;28;20030;-75
2023/02/19 01:57:19;;;;;;;10.48;1.73;;;9.80;99.90;;;;;;4995670;28;20027;-75
2023/02/19 01:59:48;;;;;;;5.63;0.85;;;9.80;99.90;;;;;;4996950;28;20025;-75
2023/02/19 02:02:15;;;;;;;8.90;0.93;;;9.70;99.90;;;;;;4995489;28;20033;-75
2023/02/19 02:04:40;;;;;;;7.40;1.15;;;9.70;99.90;;;;;;4996751;28;20026;-75
2023/02/19 02:10:18;;;;;;;11.27;2.00;;;9.70;99.90;;;;;;4996575;28;20109;-75
2023/02/19 02:12:36;;;;;;;13.32;0.90;;;9.70;99.90;;;;;;4995807;28;20041;-75
2023/02/19 02:15:02;;;;;;;11.48;1.40;;;9.60;99.90;;;;;;4995303;28;20023;-75
2023/02/19 02:17:50;;;;;;;9.98;0.65;;;9.60;99.90;;;;;;4995139;28;20057;-75
2023/02/19 02:20:34;;;;;;;7.70;0.77;;;9.60;99.90;;;;;;4996584;28;20030;-75
2023/02/19 02:23:06;;;;;;;18.10;2.28;;;9.70;99.90;;;;;;4996844;28;20027;-75
2023/02/19 02:25:58;;;;;;;6.32;0.30;;;9.70;99.90;;;;;;4996909;28;20473;-75
2023/02/19 02:28:42;;;;;;;10.93;0.95;;;9.70;99.90;;;;;;4995578;28;20026;-75
2023/02/19 02:31:32;;;;;;;6.65;0.57;;;9.70;99.90;;;;;;4996303;28;20497;-75
2023/02/19 02:34:01;;;;;;;16.38;1.83;;;9.70;99.90;;;;;;4994811;28;20113;-75
2023/02/19 02:36:35;;;;;;;14.93;2.47;;;10.00;99.90;;;;;;4994703;28;20026;-75
2023/02/19 02:39:07;;;;;;;10.27;1.15;;;9.80;99.90;;;;;;4994756;28;20026;-75
2023/02/19 02:41:33;;;;;;;5.18;0.60;;;9.80;99.90;;;;;;4996113;28;20033;-75
2023/02/19 02:43:59;;;;;;;7.07;1.20;;;9.80;99.90;;;;;;4995853;28;20034;-75
2023/02/19 02:46:33;;;;;;;10.88;1.35;;;9.80;99.90;;;;;;4995778;28;20034;-75
2023/02/19 02:49:05;;;;;;;6.00;0.30;;;9.70;99.90;;;;;;4994661;28;20026;-75
2023/02/19 02:51:37;;;;;;;14.70;2.80;;;9.70;99.90;;;;;;4995465;28;20022;-75
2023/02/19 02:56:55;;;;;;;5.72;0.82;;;9.70;99.90;;;;;;4996190;28;20547;-75
2023/02/19 02:59:27;;;;;;;7.78;1.20;;;9.70;99.90;;;;;;4995611;28;20018;-75
2023/02/19 03:02:12;;;;;;;15.40;1.08;;;9.70;99.90;;;;;;4995432;28;20035;-75
2023/02/19 03:08:20;;;;;;;7.77;1.33;;;9.60;99.90;;;;;;4996240;28;20093;-76
2023/02/19 03:10:58;;;;;;;7.85;1.23;;;9.60;99.90;;;;;;4995220;28;20268;-76
2023/02/19 03:19:23;;;;;;;13.03;1.57;;;9.60;99.90;;;;;;4996029;28;20038;-75
2023/02/19 03:22:00;;;;;;;;;;;9.50;99.90;;;;;;4995521;28;20077;-75
2023/02/19 03:27:20;;;;;;;6.53;1.00;;;9.50;99.90;;;;;;4995906;28;20085;-75
2023/02/19 03:29:48;;;;;;;8.85;1.58;;;9.50;99.90;;;;;;4993702;28;20029;-75
2023/02/19 03:32:22;;;;;;;10.25;0.70;;;9.50;99.90;;;;;;4994891;28;20050;-75
2023/02/19 03:34:55;;;;;;;6.30;0.80;;;9.50;99.90;;;;;;4994848;28;20015;-75
2023/02/19 03:37:27;;;;;;;11.50;1.05;;;9.50;99.90;;;;;;4994894;28;20026;-75
2023/02/19 03:39:53;;;;;;;11.75;1.98;;;9.50;99.90;;;;;;4995277;28;20462;-75
2023/02/19 03:42:24;;;;;;;12.65;2.00;;;9.50;99.90;;;;;;4994637;28;20065;-75
2023/02/19 03:45:01;;;;;;;8.20;1.48;;;9.50;99.90;;;;;;4994673;28;20398;-75
2023/02/19 03:47:42;;;;;;;5.38;0.80;;;9.40;99.90;;;;;;4994834;28;20023;-75
2023/02/19 03:50:15;;;;;;;11.68;0.70;;;9.40;99.90;;;;;;4990512;28;20035;-76
2023/02/19 03:53:05;;;;;;;10.45;0.88;;;9.40;99.90;;;;;;4992465;28;20026;-75
2023/02/19 03:55:48;;;;;;;12.85;1.00;;;9.30;99.90;;;;;;4982104;28;20112;-74
2023/02/19 03:58:30;;;;;;;11.43;1.67;;;9.40;99.90;;;;;;4994575;28;20022;-74
2023/02/19 04:01:08;;;;;;;8.63;1.25;;;9.40;99.90;;;;;;4993123;28;20030;-74
2023/02/19 04:03:51;;;;;;;7.43;1.50;;;9.40;99.90;;;;;;4994455;28;20509;-74
2023/02/19 04:06:22;;;;;;;10.25;1.92;;;9.40;99.90;;;;;;4994408;28;20068;-74
2023/02/19 04:08:51;;;;;;;5.72;1.40;;;9.40;99.90;;;;;;4993035;28;20057;-74
2023/02/19 04:11:18;;;;;;;5.90;1.02;;;9.40;99.90;;;;;;4992833;28;20026;-74
2023/02/19 04:14:13;;;;;;;12.15;1.65;;;9.30;99.90;;;;;;4994778;28;20058;-74
2023/02/19 04:16:43;;;;;;;8.77;2.42;;;9.30;99.90;;;;;;4994652;28;20080;-74
2023/02/19 04:19:12;;;;;;;8.25;1.58;;;9.30;99.90;;;;;;4993077;28;20030;-74
2023/02/19 04:21:39;;;;;;;9.25;0.95;;;9.30;99.90;;;;;;4992711;28;20018;-74
2023/02/19 04:24:20;;;;;;;14.02;1.65;;;9.40;99.90;;;;;;4994360;28;20038;-75
2023/02/19 04:26:46;;;;;;;11.25;1.55;;;9.40;99.90;;;;;;4992968;28;20490;-74
2023/02/19 04:29:12;;;;;;;10.32;0.55;;;9.40;99.90;;;;;;4994934;28;20152;-74
2023/02/19 04:31:38;;;;;;;8.88;0.68;;;9.70;99.90;;;;;;4993993;28;20033;-74
2023/02/19 04:34:03;;;;;;;11.55;1.17;;;9.40;99.90;;;;;;4994049;28;20034;-75
2023/02/19 04:36:32;;;;;;;5.63;0.98;;;9.30;99.90;;;;;;4997273;28;20026;-75
2023/02/19 04:38:58;;;;;;;9.85;0.73;;;9.30;99.90;;;;;;4999195;28;20482;-74
2023/02/19 04:41:24;;;;;;;6.60;0.85;;;9.30;99.90;;;;;;5000105;28;20027;-74
2023/02/19 04:43:49;;;;;;;11.80;1.45;;;9.40;99.90;;;;;;5000804;28;20022;-75
2023/02/19 04:46:15;;;;;;;12.00;1.35;;;9.40;99.90;;;;;;4999789;28;20089;-74
2023/02/19 04:48:41;;;;;;;12.68;0.47;;;9.30;99.90;;;;;;4999120;28;20022;-74
2023/02/19 04:51:08;;;;;;;7.63;1.33;;;9.40;99.90;;;;;;4999028;28;20021;-74
2023/02/19 04:53:37;;;;;;;11.50;1.40;;;9.30;99.90;;;;;;5000108;28;20394;-74
2023/02/19 04:56:14;;;;;;;7.80;1.50;;;11.10;99.90;;;;;;4999012;28;20121;-74
2023/02/19 04:58:40;;;;;;;10.80;1.40;;;9.40;99.90;;;;;;5000347;28;20030;-75
2023/02/19 05:01:06;;;;;;;10.93;1.65;;;9.40;99.90;;;;;;4999530;28;20033;-73
2023/02/19 05:03:34;;;;;;;9.32;1.30;;;9.40;99.90;;;;;;5001416;28;20482;-73
2023/02/19 05:06:08;;;;;;;13.30;1.05;;;9.40;99.90;;;;;;5000276;28;20485;-73
2023/02/19 05:08:34;;;;;;;10.60;0.80;;;9.40;99.90;;;;;;5000260;28;20029;-73
2023/02/19 05:11:01;;;;;;;6.55;0.85;;;9.40;99.90;;;;;;4998669;28;20397;-73
2023/02/19 05:13:27;;;;;;;7.70;0.77;;;9.40;99.90;;;;;;4998892;28;20103;-74
2023/02/19 05:15:57;;;;;;;9.27;1.45;;;9.40;99.90;;;;;;4999006;28;20050;-74
2023/02/19 05:18:23;;;;;;;11.00;1.95;;;9.30;99.90;;;;;;4999050;28;20081;-74
2023/02/19 05:20:50;;;;;;;6.15;0.30;;;9.40;99.90;;;;;;5000397;28;20022;-74
2023/02/19 05:23:15;;;;;;;7.47;0.98;;;9.40;99.90;;;;;;4998895;28;20026;-74
2023/02/19 05:25:41;;;;;;;5.55;0.55;;;9.40;99.90;;;;;;4998872;28;20025;-74
2023/02/19 05:28:15;;;;;;;7.47;0.65;;;9.40;99.90;;;;;;5000070;28;20054;-74
2023/02/19 05:30:45;;;;;;;6.80;0.60;;;9.40;99.90;;;;;;4999949;28;20019;-74
2023/02/19 05:33:12;;;;;;;9.93;2.60;;;9.50;99.90;;;;;;4998806;28;20045;-74
2023/02/19 05:35:46;;;;;;;7.07;0.75;;;9.50;99.90;;;;;;5000571;28;20493;-74
2023/02/19 05:38:12;;;;;;;14.57;1.30;;;9.50;99.90;;;;;;5000277;28;20441;-74
2023/02/19 05:40:38;;;;;;;10.20;0.75;;;9.40;99.90;;;;;;4998694;28;20023;-74
2023/02/19 05:43:04;;;;;;;3.90;0.15;;;9.40;99.90;;;;;;4998691;28;20026;-74
2023/02/19 05:45:30;;;;;;;9.45;1.45;;;9.40;99.90;;;;;;4998640;28;20421;-74
2023/02/19 05:47:55;;;;;;;7.90;0.85;;;9.50;99.90;;;;;;4995581;28;20029;-74
2023/02/19 05:50:21;;;;;;;5.72;0.60;;;9.40;99.90;;;;;;4995555;28;20026;-74
2023/02/19 05:52:47;;;;;;;13.10;0.80;;;9.40;99.90;;;;;;4996717;28;20105;-74
2023/02/19 05:55:12;;;;;;;11.70;0.82;;;9.40;99.90;;;;;;4995400;28;20114;-74
2023/02/19 05:57:43;;;;;;;10.60;1.10;;;9.40;99.90;;;;;;4995473;28;20429;-74
2023/02/19 06:00:11;;;;;;;11.98;0.65;;;9.40;99.90;;;;;;4996586;28;20531;-74
2023/02/19 06:02:37;;;;;;;7.38;0.30;;;9.40;99.90;;;;;;4995458;28;20029;-74
2023/02/19 06:05:03;;;;;;;6.60;1.45;;;9.40;99.90;;;;;;4996532;28;20030;-74
2023/02/19 06:07:30;;;;;;;10.05;2.05;;;9.40;99.90;;;;;;4996639;28;20030;-74
2023/02/19 06:09:55;;;;;;;3.58;0.25;;;9.40;99.90;;;;;;4995305;28;20036;-74
2023/02/19 06:12:21;;;;;;;13.77;1.40;;;9.40;99.90;;;;;;4996389;28;20026;-74
2023/02/19 06:14:47;;;;;;;11.52;1.48;;;9.30;99.90;;;;;;4995311;28;20022;-74
2023/02/19 06:17:13;;;;;;;12.38;0.60;;;9.30;99.90;;;;;;4996068;28;20022;-73
2023/02/19 06:19:38;;;;;;;14.77;1.30;;;9.30;99.90;;;;;;4994861;28;20370;-74
2023/02/19 06:22:04;;;;;;;10.43;1.30;;;9.30;99.90;;;;;;4994767;28;20030;-74
2023/02/19 06:24:30;;;;;;;5.00;0.70;;;9.30;99.90;;;;;;4996209;28;20033;-74
2023/02/19 06:26:57;;;;;;;8.32;0.88;;;9.30;99.90;;;;;;4979017;28;20066;-74
2023/02/19 06:29:23;;;;;;;10.25;1.23;;;9.30;99.90;;;;;;4994620;28;20034;-74
2023/02/19 06:31:49;;;;;;;11.10;1.30;;;9.20;99.90;;;;;;4995940;28;20035;-74
2023/02/19 06:34:14;;;;;;;9.55;1.85;;;9.20;99.90;;;;;;4994953;28;20018;-74
2023/02/19 06:36:40;;;;;;;7.70;0.65;;;9.10;99.90;;;;;;4995914;28;20033;-74
2023/02/19 06:39:06;;;;;;;8.52;1.35;;;9.10;99.90;;;;;;4995824;28;20025;-74
2023/02/19 06:41:31;;;;;;;15.20;1.98;;;9.10;99.90;;;;;;4994574;28;20054;-74
2023/02/19 06:43:58;;;;;;;6.15;1.35;;;9.10;99.90;;;;;;4994627;28;20139;-74
2023/02/19 06:46:23;;;;;;;6.35;1.23;;;9.10;99.90;;;;;;4994604;28;20080;-74
2023/02/19 06:48:49;;;;;;;7.80;1.08;;;9.00;99.90;;;;;;4994406;28;20038;-74
2023/02/19 06:51:18;;;;;;;8.95;1.80;;;9.10;99.90;;;;;;4994265;28;20030;-74
2023/02/19 06:53:44;;;;;;;;;;;9.10;99.90;;;;;;5079126;22;20012;-74
2023/02/19 06:56:23;;;;;;;9.93;1.50;;;11.40;99.90;;;;;;5014135;28;19905;-75
2023/02/19 06:58:49;;;;;;;12.90;1.85;;;9.00;99.90;;;;;;5013666;28;20065;-76
2023/02/19 07:01:15;;;;;;;9.50;1.25;;;9.00;99.90;;;;;;5015196;28;20084;-75
2023/02/19 07:03:41;;;;;;;5.40;1.48;;;9.00;99.90;;;;;;5014559;28;20041;-75
2023/02/19 07:06:06;;;;;;;18.08;1.10;;;9.00;99.90;;;;;;5013559;28;20022;-75
2023/02/19 07:08:32;;;;;;;9.65;2.30;;;9.00;99.90;;;;;;5013692;28;20389;-75
2023/02/19 07:10:58;;;;;;;8.32;2.08;;;9.00;99.90;;;;;;5014671;28;20113;-75
2023/02/19 07:13:25;;;;;;;14.20;1.90;;;9.00;99.90;;;;;;5014794;28;20059;-75
2023/02/19 07:15:58;;;;;;;15.25;1.75;;;9.00;99.90;;;;;;5013568;28;20026;-75
2023/02/19 07:18:24;;;;;;;10.50;1.77;;;9.00;99.90;;;;;;5014927;28;20072;-76
2023/02/19 07:20:49;;;;;;;10.82;1.38;;;9.00;99.90;;;;;;5014422;28;20030;-75
2023/02/19 07:23:15;;;;;;;17.60;2.10;;;9.00;99.90;;;;;;5013439;28;20021;-76
2023/02/19 07:25:40;;;;;;;9.32;2.15;;;9.00;99.90;;;;;;5013392;28;20029;-76
2023/02/19 07:28:06;;;;;;;10.73;2.33;;;9.00;99.90;;;;;;5013638;28;20033;-75
2023/02/19 07:30:32;;;;;;;7.65;1.27;;;9.00;99.90;;;;;;5012758;28;20030;-75
2023/02/19 07:32:58;;;;;;;9.68;1.90;;;9.00;99.90;;;;;;5014539;28;20481;-75
2023/02/19 07:35:23;;;;;;;6.63;0.93;;;9.00;99.90;;;;;;5014570;28;20026;-76
2023/02/19 07:37:49;;;;;;;5.82;1.50;;;9.00;99.90;;;;;;5013239;28;20080;-76
2023/02/19 07:40:15;;;;;;;12.50;2.45;;;9.00;99.90;;;;;;5014356;28;20076;-75
2023/02/19 07:42:40;;;;;;;11.55;2.17;;;9.00;99.90;;;;;;5014223;28;20029;-75
2023/02/19 07:45:06;;;;;;;5.78;1.77;;;9.00;99.90;;;;;;5014200;28;20041;-76
2023/02/19 07:47:32;;;;;;;7.32;1.42;;;9.00;99.90;;;;;;5014307;28;20018;-75
2023/02/19 07:49:57;;;;;;;10.63;1.75;;;8.90;99.90;;;;;;5014612;28;20048;-76
2023/02/19 07:52:23;;;;;;;7.00;2.13;;;8.90;99.90;;;;;;5014152;28;20026;-76
2023/02/19 07:54:48;;;;;;;12.60;1.85;;;9.30;99.90;;;;;;5014156;28;20065;-76
2023/02/19 07:57:14;;;;;;;14.00;1.88;;;9.60;99.90;;;;;;5014675;28;20120;-76
2023/02/19 07:59:40;;;;;;;8.50;1.77;;;8.90;99.90;;;;;;5014193;28;20022;-75
2023/02/19 08:05:05;;;;;;;8.60;2.05;;;9.00;99.90;;;;;;5014868;28;20084;-75
2023/02/19 08:07:32;;;;;;;11.55;1.58;;;9.00;99.90;;;;;;5013978;28;20076;-76
2023/02/19 08:15:26;;;;;;;10.00;2.53;;;9.00;99.90;;;;;;5014195;28;20045;-75
2023/02/19 08:17:51;;;;;;;13.50;2.42;;;9.10;99.90;;;;;;5012674;28;20018;-75
2023/02/19 08:20:17;;;;;;;7.00;1.08;;;9.20;99.90;;;;;;5012570;28;20044;-75
2023/02/19 08:22:43;;;;;;;12.52;1.90;;;9.00;99.90;;;;;;5013651;28;20029;-75
2023/02/19 08:25:08;;;;;;;10.82;2.00;;;9.00;99.90;;;;;;5013773;28;20030;-75
2023/02/19 08:27:34;;;;;;;10.07;1.52;;;9.00;99.90;;;;;;5013911;28;20022;-75
2023/02/19 08:29:59;;;;;;;6.15;1.77;;;9.10;99.90;;;;;;5012484;28;20534;-75
2023/02/19 08:32:25;;;;;;;14.00;2.83;;;9.00;99.90;;;;;;5012330;28;20424;-75
2023/02/19 08:34:50;;;;;;;16.58;3.20;;;9.10;99.90;;;;;;5012696;28;20463;-75
2023/02/19 08:37:16;;;;;;;9.73;1.98;;;9.00;99.90;;;;;;5013752;28;20022;-75
2023/02/19 08:39:41;;;;;;;9.98;2.80;;;9.10;99.90;;;;;;5013662;28;20473;-75
2023/02/19 08:42:07;;;;;;;11.65;2.70;;;9.20;99.90;;;;;;5012361;28;20436;-74
2023/02/19 08:44:33;;;;;;;16.25;2.40;;;9.20;99.90;;;;;;5013590;28;20030;-75
2023/02/19 08:46:58;;;;;;;8.48;1.90;;;9.20;99.90;;;;;;5014284;28;20032;-74
2023/02/19 08:49:26;;;;;;;6.85;2.42;;;9.30;99.90;;;;;;5012573;28;20032;-74
2023/02/19 08:51:51;;;;;;;12.05;2.50;;;9.30;99.90;;;;;;5013594;28;20033;-75
2023/02/19 08:54:17;;;;;;;11.95;2.60;;;9.30;99.90;;;;;;5012237;28;20030;-74
2023/02/19 08:56:42;;;;;;;15.85;2.90;;;9.40;99.90;;;;;;5012446;28;20103;-75
2023/02/19 08:59:08;;;;;;;13.13;2.92;;;9.40;99.90;;;;;;5013651;28;20026;-75
2023/02/19 09:01:34;;;;;;;13.88;2.65;;;9.30;99.90;;;;;;5012050;28;20026;-74
2023/02/19 09:03:59;;;;;;;17.48;2.42;;;9.40;99.90;;;;;;5013984;28;20049;-75
2023/02/19 09:06:25;;;;;;;11.43;2.28;;;9.30;99.90;;;;;;5013286;28;20508;-74
2023/02/19 09:08:50;;;;;;;7.38;1.92;;;9.40;99.90;;;;;;5013524;28;20033;-75
2023/02/19 09:11:16;;;;;;;11.38;1.92;;;9.40;99.90;;;;;;5013369;28;20034;-76
2023/02/19 09:13:42;;;;;;;11.10;1.75;;;9.60;99.90;;;;;;5013217;28;20056;-75
2023/02/19 09:16:09;;;;;;;10.48;1.92;;;9.70;99.90;;;;;;5013175;28;20122;-75
2023/02/19 09:18:35;;;;;;;14.40;2.47;;;9.60;99.90;;;;;;5012666;28;20492;-74
2023/02/19 09:21:03;;;;;;;7.90;1.75;;;9.60;99.90;;;;;;5011964;28;20021;-74
2023/02/19 09:23:29;;;;;;;9.93;1.95;;;9.70;99.90;;;;;;5014336;28;20056;-75
2023/02/19 09:25:59;;;;;;;8.35;1.70;;;9.70;99.90;;;;;;5015859;28;20018;-74
2023/02/19 09:28:26;;;;;;;6.57;1.88;;;9.80;99.90;;;;;;5017502;28;20013;-74
2023/02/19 09:30:52;;;;;;;7.65;0.85;;;9.70;99.90;;;;;;5017319;28;20385;-74
2023/02/19 09:33:18;;;;;;;9.13;1.38;;;9.80;99.90;;;;;;5016881;28;20026;-74
2023/02/19 09:35:46;;;;;;;5.00;0.63;;;9.80;99.90;;;;;;5017265;28;20362;-75
2023/02/19 09:38:14;;;;;;;;;;;9.80;99.90;;;;;;5015369;28;20366;-74
2023/02/19 09:40:40;;;;;;;20.02;1.73;;;9.80;99.90;;;;;;5015200;28;19913;-74
2023/02/19 09:43:17;;;;;;;10.85;1.08;;;9.80;99.90;;;;;;5015322;28;20025;-74
2023/02/19 09:45:42;;;;;;;7.85;1.50;;;9.80;99.90;;;;;;5016972;28;20030;-74
2023/02/19 09:48:10;;;;;;;10.95;1.45;;;9.90;99.90;;;;;;5016397;28;20369;-74
2023/02/19 09:50:42;;;;;;;8.57;1.17;;;9.90;99.90;;;;;;5015316;28;20034;-74
2023/02/19 09:53:24;;;;;;;14.45;1.17;;;9.90;99.90;;;;;;5016553;28;20512;-74
2023/02/19 09:55:52;;;;;;;13.20;1.38;;;9.90;99.90;;;;;;5016558;28;20033;-74
2023/02/19 09:58:25;;;;;;;11.32;0.95;;;9.90;99.90;;;;;;5016162;28;20427;-74
2023/02/19 10:00:55;;;;;;;8.32;2.70;;;10.00;99.90;;;;;;5016371;28;20045;-74
2023/02/19 10:03:33;;;;;;;4.60;1.13;;;10.00;99.90;;;;;;5014885;28;20374;-74
2023/02/19 10:06:03;;;;;;;4.63;1.00;;;10.10;99.90;;;;;;5016037;28;20553;-74
2023/02/19 10:08:32;;;;;;;15.93;2.58;;;10.10;99.90;;;;;;5015045;28;20381;-74
2023/02/19 10:10:59;;;;;;;10.30;1.55;;;10.20;99.90;;;;;;5016011;28;20401;-73
2023/02/19 10:14:02;;;;;;;7.70;1.17;;;10.20;99.90;;;;;;5014958;28;20049;-73
2023/02/19 10:16:29;;;;;;;3.88;0.75;;;10.30;99.90;;;;;;5005313;28;20038;-73
2023/02/19 10:18:55;;;;;;;4.53;0.47;;;10.30;99.90;;;;;;5016070;28;20106;-73
2023/02/19 10:21:23;;;;;;;7.03;0.73;;;10.50;99.90;;;;;;5015969;28;20030;-73
2023/02/19 10:23:54;;;;;;;4.25;0.93;;;10.60;99.90;;;;;;5015863;28;20493;-73
2023/02/19 10:26:21;;;;;;;3.92;0.30;;;10.60;99.90;;;;;;5014727;28;20022;-73
2023/02/19 10:28:47;;;;;;;7.18;0.82;;;10.80;99.90;;;;;;5014914;28;20113;-73
2023/02/19 10:31:19;;;;;;;3.90;0.30;;;10.80;99.90;;;;;;5014427;28;20115;-73
2023/02/19 10:33:49;;;;;;;3.30;0.10;;;10.80;99.90;;;;;;5014046;28;20041;-73
2023/02/19 10:36:45;;;;;;;2.28;0.10;;;10.70;99.90;;;;;;5014333;28;20526;-73
2023/02/19 10:39:25;;;;;;;3.33;0.15;;;10.60;99.90;;;;;;5015655;28;20038;-73
2023/02/19 10:41:55;;;;;;;3.70;0.10;;;10.60;99.90;;;;;;5014411;28;20512;-73
2023/02/19 10:44:31;;;;;;;4.78;0.20;;;10.40;99.90;;;;;;5015994;28;20549;-73
2023/02/19 10:46:58;;;;;;;1.45;0.20;;;10.30;99.90;;;;;;5014410;28;20036;-73
2023/02/19 10:49:35;;;;;;;2.45;0.32;;;10.20;99.90;;;;;;5014098;28;20026;-73
2023/02/19 10:52:16;;;;;;;1.50;0.20;;;10.20;99.90;;;;;;5013533;28;20362;-73
2023/02/19 10:54:43;;;;;;;1.85;0.10;;;10.20;99.90;;;;;;5014267;28;20034;-73
2023/02/19 10:57:17;;;;;;;1.85;0.68;;;10.10;99.90;;;;;;5013994;28;20398;-72
2023/02/19 10:59:57;;;;;;;1.45;0.22;;;9.90;99.90;;;;;;5015054;28;20050;-73
2023/02/19 11:02:24;;;;;;;3.67;0.20;;;9.90;99.90;;;;;;5013983;28;20073;-73
2023/02/19 11:05:15;;;;;;;1.70;0.20;;;9.70;99.90;;;;;;5015123;28;20025;-73
2023/02/19 11:07:50;;;;;;;2.20;0.00;;;9.60;99.90;;;;;;5013939;28;20033;-73
2023/02/19 11:10:27;;;;;;;1.95;0.20;;;9.60;99.90;;;;;;5014989;28;20057;-73
2023/02/19 11:12:56;;;;;;;7.28;0.80;;;9.70;99.90;;;;;;5014811;28;20034;-73
2023/02/19 11:15:34;;;;;;;0.20;0.00;;;9.70;99.90;;;;;;5013328;28;20041;-73
2023/02/19 11:18:11;;;;;;;0.30;0.10;;;9.70;99.90;;;;;;5015151;28;20030;-73
2023/02/19 11:20:55;;;;;;;0.75;0.00;;;9.70;99.90;;;;;;5013295;28;20021;-73
2023/02/19 11:23:26;;;;;;;0.50;0.00;;;9.70;99.90;;;;;;5013677;28;20400;-73
2023/02/19 11:25:53;;;;;;;0.77;0.00;;;9.60;99.90;;;;;;5013706;28;20440;-73
2023/02/19 11:28:24;;;;;;;3.88;0.22;;;9.50;99.90;;;;;;5014793;28;20163;-73
2023/02/19 11:30:50;;;;;;;2.42;0.20;;;9.50;99.90;;;;;;5013354;28;20046;-73
2023/02/19 11:33:26;;;;;;;1.50;0.25;;;9.50;99.90;;;;;;5015161;28;20406;-73
2023/02/19 11:35:59;;;;;;;1.33;0.10;;;9.40;99.90;;;;;;5013461;28;20076;-73
2023/02/19 11:38:25;;;;;;;1.13;0.20;;;9.50;99.90;;;;;;5014505;28;20025;-73
2023/02/19 11:41:09;;;;;;;0.32;0.00;;;9.50;99.90;;;;;;5014701;28;20018;-73
2023/02/19 11:43:37;;;;;;;3.35;1.15;;;9.50;99.90;;;;;;5013538;28;20117;-73
2023/02/19 11:46:11;;;;;;;3.00;0.10;;;9.40;99.90;;;;;;5012426;28;20026;-73
2023/02/19 11:48:46;;;;;;;0.35;0.13;;;9.40;99.90;;;;;;5013495;28;20022;-74
2023/02/19 11:51:27;;;;;;;0.60;0.20;;;9.40;99.90;;;;;;5014874;28;20025;-73
2023/02/19 11:54:20;;;;;;;0.57;0.17;;;9.40;99.90;;;;;;5012944;28;20034;-73
2023/02/19 11:56:58;;;;;;;0.30;0.00;;;9.30;99.90;;;;;;5013377;28;20061;-73
2023/02/19 11:59:51;;;;;;;0.10;0.00;;;9.40;99.90;;;;;;5014424;28;20021;-73
2023/02/19 12:02:46;;;;;;;1.23;0.03;;;9.40;99.90;;;;;;5014320;28;20037;-74
2023/02/19 12:05:39;;;;;;;0.88;0.10;;;9.30;99.90;;;;;;5013216;28;20029;-73
2023/02/19 12:08:26;;;;;;;1.45;0.47;;;9.30;99.90;;;;;;5013083;28;20037;-73
2023/02/19 12:11:34;;;;;;;0.40;0.10;;;9.40;99.90;;;;;;5013134;28;20022;-74
2023/02/19 12:14:26;;;;;;;0.77;0.17;;;9.50;99.90;;;;;;5014902;28;20103;-74
2023/02/19 12:17:32;;;;;;;2.88;0.10;;;9.50;99.90;;;;;;5014121;28;20105;-73
2023/02/19 12:20:08;;;;;;;0.80;0.20;;;9.50;99.90;;;;;;5012794;28;20034;-74
2023/02/19 12:22:47;;;;;;;0.60;0.17;;;9.50;99.90;;;;;;5014089;28;20041;-73
2023/02/19 12:26:04;;;;;;;2.22;0.65;;;9.50;99.90;;;;;;5012719;28;20029;-73
2023/02/19 12:28:43;;;;;;;0.30;0.05;;;9.50;99.90;;;;;;4972971;28;20073;-73
2023/02/19 12:31:26;;;;;;;0.68;0.10;;;9.50;99.90;;;;;;5013651;28;20049;-73
2023/02/19 12:34:05;;;;;;;3.60;0.15;;;9.60;99.90;;;;;;5012690;28;20025;-73
2023/02/19 12:36:39;;;;;;;1.52;0.10;;;9.60;99.90;;;;;;5013985;28;20033;-73
2023/02/19 12:39:15;;;;;;;1.40;0.10;;;9.60;99.90;;;;;;5013800;28;20076;-73
2023/02/19 12:42:04;;;;;;;2.33;0.10;;;9.60;99.90;;;;;;5012533;28;20030;-73
2023/02/19 12:44:47;;;;;;;0.82;0.20;;;9.50;99.90;;;;;;5007044;28;20448;-74
2023/02/19 12:47:38;;;;;;;0.80;0.10;;;9.50;99.90;;;;;;5013327;28;20105;-73
2023/02/19 12:50:21;;;;;;;1.48;0.30;;;9.40;99.90;;;;;;5013088;28;20440;-73
2023/02/19 12:52:52;;;;;;;1.30;0.20;;;9.30;99.90;;;;;;5013253;28;20109;-73
2023/02/19 12:55:19;;;;;;;1.02;0.20;;;9.30;99.90;;;;;;5013602;28;20042;-73
2023/02/19 12:57:46;;;;;;;1.25;0.20;;;9.20;99.90;;;;;;5015084;28;20366;-73
2023/02/19 13:00:26;;;;;;;1.70;0.13;;;9.10;99.90;;;;;;5016270;28;20030;-73
2023/02/19 13:02:59;;;;;;;1.67;0.20;;;9.10;99.90;;;;;;5018108;28;20037;-73
2023/02/19 13:05:45;;;;;;;1.00;0.10;;;8.90;99.90;;;;;;5017657;28;20026;-73
2023/02/19 13:08:11;;;;;;;0.65;0.08;;;8.80;99.90;;;;;;5016222;28;20046;-73
2023/02/19 13:10:43;;;;;;;0.75;0.30;;;8.70;99.90;;;;;;5017953;28;20064;-73
2023/02/19 13:13:40;;;;;;;0.40;0.10;;;8.80;99.90;;;;;;5016084;28;20396;-73
2023/02/19 13:16:12;;;;;;;2.20;0.20;;;8.50;99.90;;;;;;4989609;28;20053;-73
2023/02/19 13:18:56;;;;;;;0.17;0.00;;;8.50;99.90;;;;;;5017287;28;20101;-73
2023/02/19 13:24:15;;;;;;;1.20;0.38;;;8.30;99.90;;;;;;5017781;28;20507;-73
2023/02/19 13:26:48;;;;;;;1.58;0.10;;;8.30;99.90;;;;;;5015990;28;20022;-73
2023/02/19 13:29:22;;;;;;;1.23;0.08;;;8.20;99.90;;;;;;5015880;28;20129;-73
2023/02/19 13:32:20;;;;;;;3.10;0.10;;;8.20;99.90;;;;;;5015643;28;20117;-73
2023/02/19 13:35:17;;;;;;;0.57;0.00;;;8.10;99.90;;;;;;5017058;28;20523;-73
2023/02/19 13:37:43;;;;;;;2.30;0.00;;;8.10;99.90;;;;;;5015783;28;20033;-73
2023/02/19 13:40:31;;;;;;;1.45;0.00;;;8.00;99.90;;;;;;5015651;28;20022;-73
2023/02/19 13:43:03;;;;;;;0.70;0.10;;;8.00;99.90;;;;;;5016028;28;20125;-73